Time;durP1;ratioP1;P1;durP2;ratioP2;P2;SDS_P1;SDS_P2;PMS_P1;PMS_P2;Temp;Humidity;BMP_temperature;BMP_pressure;BME280_temperature;BME280_humidity;BME280_pressure;Samples;Min_cycle;Max_cycle;Signal;HPM_P1;HPM_P2
2021/02/04 00:02:57;;;;;;;1.17;0.71;;;;;;;19.03;49.85;99688.16;;;;-60
2021/02/04 00:05:57;;;;;;;0.82;0.70;;;;;;;19.01;49.83;99701.24;;;;-54
2021/02/04 00:08:57;;;;;;;0.72;0.70;;;;;;;19.00;49.85;99709.75;;;;-60
2021/02/04 00:11:57;;;;;;;0.84;0.76;;;;;;;18.97;49.85;99719.84;;;;-61
2021/02/04 00:14:57;;;;;;;0.75;0.75;;;;;;;18.96;49.85;99727.06;;;;-53
2021/02/04 00:17:57;;;;;;;0.98;0.80;;;;;;;18.94;49.87;99734.86;;;;-53
2021/02/04 00:20:57;;;;;;;0.72;0.70;;;;;;;18.93;49.88;99739.59;;;;-54
2021/02/04 00:23:57;;;;;;;0.85;0.84;;;;;;;18.92;49.88;99752.40;;;;-54
2021/02/04 00:26:57;;;;;;;0.55;0.55;;;;;;;18.91;49.88;99766.39;;;;-60
2021/02/04 00:29:57;;;;;;;0.91;0.86;;;;;;;18.88;49.92;99768.72;;;;-61
2021/02/04 00:32:57;;;;;;;0.63;0.63;;;;;;;18.87;49.90;99779.22;;;;-60
2021/02/04 00:35:57;;;;;;;0.98;0.90;;;;;;;18.85;49.91;99780.92;;;;-54
2021/02/04 00:38:57;;;;;;;0.82;0.80;;;;;;;18.84;49.93;99790.33;;;;-53
2021/02/04 00:41:57;;;;;;;0.79;0.78;;;;;;;18.81;49.87;99790.83;;;;-53
2021/02/04 00:44:57;;;;;;;0.77;0.77;;;;;;;18.81;49.89;99807.62;;;;-61
2021/02/04 00:47:57;;;;;;;0.70;0.70;;;;;;;18.79;49.91;99814.95;;;;-61
2021/02/04 00:50:57;;;;;;;0.63;0.63;;;;;;;18.78;49.91;99815.06;;;;-61
2021/02/04 00:53:57;;;;;;;0.83;0.83;;;;;;;18.77;49.91;99829.20;;;;-60
2021/02/04 00:56:57;;;;;;;0.80;0.80;;;;;;;18.76;49.91;99840.72;;;;-53
2021/02/04 00:59:57;;;;;;;0.80;0.80;;;;;;;18.74;49.89;99839.44;;;;-54
2021/02/04 01:02:57;;;;;;;0.71;0.71;;;;;;;18.73;49.92;99845.84;;;;-54
2021/02/04 01:05:57;;;;;;;0.81;0.68;;;;;;;18.71;49.91;99855.49;;;;-54
2021/02/04 01:08:57;;;;;;;0.79;0.67;;;;;;;18.70;49.92;99863.22;;;;-54
2021/02/04 01:11:57;;;;;;;0.71;0.71;;;;;;;18.68;49.93;99866.14;;;;-54
2021/02/04 01:14:57;;;;;;;0.81;0.74;;;;;;;18.67;49.97;99872.30;;;;-54
2021/02/04 01:17:57;;;;;;;0.71;0.71;;;;;;;18.65;49.96;99879.27;;;;-53
2021/02/04 01:20:57;;;;;;;0.60;0.60;;;;;;;18.64;49.94;99885.21;;;;-61
2021/02/04 01:23:57;;;;;;;1.11;0.91;;;;;;;18.63;49.97;99895.42;;;;-60
2021/02/04 01:26:57;;;;;;;0.65;0.65;;;;;;;18.62;49.96;99900.39;;;;-59
2021/02/04 01:29:57;;;;;;;0.69;0.69;;;;;;;18.60;50.00;99909.14;;;;-60
2021/02/04 01:32:57;;;;;;;0.59;0.59;;;;;;;18.58;49.98;99908.81;;;;-61
2021/02/04 01:35:57;;;;;;;0.75;0.71;;;;;;;18.58;50.00;99912.95;;;;-54
2021/02/04 01:38:57;;;;;;;0.60;0.60;;;;;;;18.57;50.00;99912.86;;;;-60
2021/02/04 01:41:57;;;;;;;0.67;0.63;;;;;;;18.56;49.98;99920.42;;;;-61
2021/02/04 01:44:57;;;;;;;0.75;0.75;;;;;;;18.54;50.01;99927.88;;;;-55
2021/02/04 01:47:57;;;;;;;0.63;0.63;;;;;;;18.53;50.03;99929.65;;;;-54
2021/02/04 01:50:57;;;;;;;0.50;0.50;;;;;;;18.52;50.01;99933.47;;;;-54
2021/02/04 01:53:57;;;;;;;0.70;0.70;;;;;;;18.51;50.02;99937.44;;;;-60
2021/02/04 01:56:57;;;;;;;0.75;0.75;;;;;;;18.49;50.04;99936.16;;;;-61
2021/02/04 01:59:56;;;;;;;0.59;0.59;;;;;;;18.49;49.99;99945.89;;;;-53
2021/02/04 02:02:57;;;;;;;0.71;0.71;;;;;;;18.48;50.00;99947.91;;;;-53
2021/02/04 02:05:57;;;;;;;0.70;0.70;;;;;;;18.46;50.01;99944.41;;;;-53
2021/02/04 02:08:57;;;;;;;0.70;0.70;;;;;;;18.45;50.03;99950.75;;;;-53
2021/02/04 02:11:57;;;;;;;0.57;0.57;;;;;;;18.44;50.04;99959.98;;;;-54
2021/02/04 02:14:57;;;;;;;0.70;0.70;;;;;;;18.43;50.05;99966.64;;;;-60
2021/02/04 02:17:57;;;;;;;0.60;0.60;;;;;;;18.43;50.08;99973.52;;;;-61
2021/02/04 02:20:57;;;;;;;0.75;0.75;;;;;;;18.41;50.06;99963.15;;;;-54
2021/02/04 02:23:57;;;;;;;0.61;0.61;;;;;;;18.40;50.07;99960.21;;;;-60
2021/02/04 02:26:57;;;;;;;0.65;0.65;;;;;;;18.39;50.04;99965.25;;;;-61
2021/02/04 02:29:57;;;;;;;0.65;0.65;;;;;;;18.39;50.07;99969.39;;;;-54
2021/02/04 02:32:57;;;;;;;0.70;0.70;;;;;;;18.37;50.04;99968.41;;;;-54
2021/02/04 02:35:57;;;;;;;0.59;0.59;;;;;;;18.36;50.07;99971.23;;;;-61
2021/02/04 02:38:57;;;;;;;0.62;0.62;;;;;;;18.35;50.04;99967.11;;;;-61
2021/02/04 02:41:57;;;;;;;0.70;0.70;;;;;;;18.33;50.05;99962.40;;;;-54
2021/02/04 02:44:57;;;;;;;0.70;0.70;;;;;;;18.33;50.02;99966.45;;;;-61
2021/02/04 02:47:57;;;;;;;0.68;0.68;;;;;;;18.31;50.05;99967.98;;;;-60
2021/02/04 02:50:57;;;;;;;0.60;0.60;;;;;;;18.31;50.04;99967.83;;;;-61
2021/02/04 02:53:57;;;;;;;0.66;0.66;;;;;;;18.29;50.04;99971.70;;;;-53
2021/02/04 02:56:57;;;;;;;0.67;0.67;;;;;;;18.28;50.05;99974.23;;;;-61
2021/02/04 02:59:57;;;;;;;0.68;0.68;;;;;;;18.28;50.01;99979.48;;;;-61
2021/02/04 03:02:56;;;;;;;0.82;0.81;;;;;;;18.27;50.05;99978.11;;;;-53
2021/02/04 03:05:57;;;;;;;1.67;0.70;;;;;;;18.26;50.02;99984.66;;;;-54
2021/02/04 03:08:57;;;;;;;0.65;0.65;;;;;;;18.24;50.02;99985.22;;;;-61
2021/02/04 03:11:57;;;;;;;0.64;0.64;;;;;;;18.24;50.05;99991.05;;;;-60
2021/02/04 03:14:57;;;;;;;0.55;0.55;;;;;;;18.23;50.07;99993.50;;;;-54
2021/02/04 03:17:57;;;;;;;0.68;0.68;;;;;;;18.22;50.04;99992.45;;;;-54
2021/02/04 03:20:57;;;;;;;0.68;0.68;;;;;;;18.22;50.03;100002.81;;;;-54
2021/02/04 03:23:57;;;;;;;0.80;0.80;;;;;;;18.21;50.05;100005.82;;;;-61
2021/02/04 03:26:57;;;;;;;0.79;0.79;;;;;;;18.20;50.05;100016.98;;;;-54
2021/02/04 03:29:57;;;;;;;0.66;0.66;;;;;;;18.18;50.05;100020.82;;;;-53
2021/02/04 03:32:57;;;;;;;0.57;0.57;;;;;;;18.17;50.00;100029.55;;;;-61
2021/02/04 03:35:57;;;;;;;0.71;0.71;;;;;;;18.17;50.02;100040.26;;;;-60
2021/02/04 03:38:57;;;;;;;0.59;0.59;;;;;;;18.16;50.05;100038.73;;;;-54
2021/02/04 03:41:57;;;;;;;0.73;0.73;;;;;;;18.15;50.02;100038.47;;;;-54
2021/02/04 03:44:57;;;;;;;0.83;0.80;;;;;;;18.14;49.97;100045.13;;;;-54
2021/02/04 03:47:57;;;;;;;0.97;0.79;;;;;;;18.14;50.04;100049.59;;;;-60
2021/02/04 03:50:56;;;;;;;0.76;0.76;;;;;;;18.13;50.04;100052.24;;;;-53
2021/02/04 03:53:57;;;;;;;0.79;0.79;;;;;;;18.13;50.00;100052.08;;;;-53
2021/02/04 03:56:57;;;;;;;0.57;0.57;;;;;;;18.11;50.04;100054.98;;;;-61
2021/02/04 03:59:57;;;;;;;0.68;0.68;;;;;;;18.11;49.98;100060.02;;;;-59
2021/02/04 04:02:57;;;;;;;0.71;0.71;;;;;;;18.10;49.99;100062.54;;;;-53
2021/02/04 04:05:57;;;;;;;0.50;0.50;;;;;;;18.09;49.97;100069.81;;;;-60
2021/02/04 04:08:57;;;;;;;0.60;0.60;;;;;;;18.08;50.01;100075.42;;;;-61
2021/02/04 04:11:57;;;;;;;0.71;0.71;;;;;;;18.07;50.05;100081.02;;;;-61
2021/02/04 04:14:56;;;;;;;0.62;0.62;;;;;;;18.06;50.06;100087.64;;;;-60
2021/02/04 04:17:57;;;;;;;0.69;0.69;;;;;;;18.06;50.03;100089.76;;;;-54
2021/02/04 04:20:57;;;;;;;0.77;0.77;;;;;;;18.05;50.01;100090.80;;;;-54
2021/02/04 04:23:56;;;;;;;0.77;0.77;;;;;;;18.04;50.01;100096.07;;;;-60
2021/02/04 04:26:57;;;;;;;0.70;0.70;;;;;;;18.03;50.02;100104.08;;;;-60
2021/02/04 04:29:57;;;;;;;0.94;0.73;;;;;;;18.02;49.95;100099.14;;;;-60
2021/02/04 04:32:58;;;;;;;0.71;0.71;;;;;;;18.02;49.95;100101.16;;;;-60
2021/02/04 04:35:57;;;;;;;0.62;0.62;;;;;;;18.00;49.96;100098.15;;;;-61
2021/02/04 04:38:58;;;;;;;0.70;0.70;;;;;;;17.99;49.98;100096.75;;;;-61
2021/02/04 04:41:57;;;;;;;0.71;0.71;;;;;;;17.99;49.96;100095.13;;;;-61
2021/02/04 04:44:57;;;;;;;0.69;0.69;;;;;;;17.98;49.98;100099.03;;;;-61
2021/02/04 04:47:57;;;;;;;0.70;0.70;;;;;;;17.98;50.00;100103.48;;;;-59
2021/02/04 04:50:57;;;;;;;0.70;0.70;;;;;;;17.98;50.09;100108.75;;;;-53
2021/02/04 04:53:57;;;;;;;0.68;0.68;;;;;;;17.96;50.08;100114.17;;;;-53
2021/02/04 04:56:57;;;;;;;1.01;0.91;;;;;;;17.96;50.03;100122.20;;;;-52
2021/02/04 04:59:59;;;;;;;1.14;0.93;;;;;;;17.95;50.01;100131.50;;;;-54
2021/02/04 05:02:57;;;;;;;0.80;0.80;;;;;;;17.94;50.01;100135.56;;;;-61
2021/02/04 05:05:57;;;;;;;1.75;0.70;;;;;;;17.94;50.01;100138.48;;;;-61
2021/02/04 05:08:57;;;;;;;0.61;0.61;;;;;;;17.92;50.02;100141.14;;;;-61
2021/02/04 05:11:56;;;;;;;0.75;0.75;;;;;;;17.91;50.01;100141.06;;;;-60
2021/02/04 05:14:57;;;;;;;0.78;0.78;;;;;;;17.91;49.99;100148.44;;;;-53
2021/02/04 05:17:57;;;;;;;0.88;0.88;;;;;;;17.90;49.98;100149.80;;;;-52
2021/02/04 05:20:57;;;;;;;0.92;0.70;;;;;;;17.90;50.00;100145.75;;;;-53
2021/02/04 05:23:57;;;;;;;0.77;0.75;;;;;;;17.89;49.96;100152.16;;;;-54
2021/02/04 05:26:56;;;;;;;0.87;0.83;;;;;;;17.88;49.99;100157.08;;;;-54
2021/02/04 05:29:57;;;;;;;0.68;0.68;;;;;;;17.88;49.94;100159.34;;;;-53
2021/02/04 05:32:57;;;;;;;0.78;0.78;;;;;;;17.87;50.00;100156.92;;;;-61
2021/02/04 05:35:56;;;;;;;0.78;0.73;;;;;;;17.86;50.00;100159.09;;;;-61
2021/02/04 05:38:57;;;;;;;0.81;0.65;;;;;;;17.85;49.96;100158.60;;;;-61
2021/02/04 05:41:57;;;;;;;0.86;0.85;;;;;;;17.85;49.98;100158.36;;;;-53
2021/02/04 05:44:56;;;;;;;0.79;0.78;;;;;;;17.84;49.96;100156.31;;;;-53
2021/02/04 05:47:57;;;;;;;0.79;0.79;;;;;;;17.83;49.94;100162.48;;;;-53
2021/02/04 05:50:56;;;;;;;1.37;0.80;;;;;;;17.83;49.98;100165.56;;;;-61
2021/02/04 05:53:57;;;;;;;0.85;0.80;;;;;;;17.82;49.96;100164.37;;;;-61
2021/02/04 05:56:57;;;;;;;0.61;0.61;;;;;;;17.81;49.96;100164.21;;;;-59
2021/02/04 05:59:56;;;;;;;0.89;0.75;;;;;;;17.81;49.96;100168.83;;;;-60
2021/02/04 06:02:57;;;;;;;1.53;1.00;;;;;;;17.81;49.95;100175.72;;;;-61
2021/02/04 06:05:57;;;;;;;0.79;0.79;;;;;;;17.80;49.98;100187.28;;;;-53
2021/02/04 06:08:57;;;;;;;0.70;0.70;;;;;;;17.79;49.96;100197.51;;;;-61
2021/02/04 06:11:57;;;;;;;0.74;0.74;;;;;;;17.79;49.96;100193.05;;;;-60
2021/02/04 06:14:56;;;;;;;0.78;0.78;;;;;;;17.78;49.93;100192.45;;;;-61
2021/02/04 06:17:57;;;;;;;0.67;0.67;;;;;;;17.77;49.97;100198.86;;;;-60
2021/02/04 06:20:57;;;;;;;0.77;0.77;;;;;;;17.77;49.94;100199.75;;;;-54
2021/02/04 06:23:56;;;;;;;0.72;0.72;;;;;;;17.76;49.96;100198.59;;;;-54
2021/02/04 06:26:57;;;;;;;1.71;0.82;;;;;;;17.75;49.98;100202.89;;;;-54
2021/02/04 06:30:00;;;;;;;0.62;0.62;;;;;;;17.75;49.93;100200.38;;;;-54
2021/02/04 06:32:56;;;;;;;0.91;0.80;;;;;;;17.74;49.95;100202.14;;;;-61
2021/02/04 06:35:58;;;;;;;0.81;0.81;;;;;;;17.73;49.95;100202.06;;;;-53
2021/02/04 06:38:57;;;;;;;0.67;0.67;;;;;;;17.73;49.94;100202.31;;;;-61
2021/02/04 06:41:57;;;;;;;0.81;0.79;;;;;;;17.72;49.97;100209.85;;;;-54
2021/02/04 06:44:57;;;;;;;0.67;0.67;;;;;;;17.71;49.94;100212.91;;;;-53
2021/02/04 06:47:56;;;;;;;0.76;0.76;;;;;;;17.71;49.96;100219.06;;;;-54
2021/02/04 06:50:57;;;;;;;0.75;0.75;;;;;;;17.72;49.96;100228.14;;;;-61
2021/02/04 06:53:56;;;;;;;0.83;0.83;;;;;;;17.71;49.93;100229.60;;;;-54
2021/02/04 06:56:57;;;;;;;0.85;0.82;;;;;;;17.71;49.95;100235.11;;;;-61
2021/02/04 06:59:57;;;;;;;0.79;0.79;;;;;;;17.70;49.96;100246.55;;;;-60
2021/02/04 07:02:56;;;;;;;4.19;1.51;;;;;;;17.58;48.24;100249.98;;;;-57
2021/02/04 07:05:57;;;;;;;4.55;1.69;;;;;;;17.27;47.85;100249.30;;;;-60
2021/02/04 07:08:57;;;;;;;4.60;1.89;;;;;;;17.12;47.81;100250.63;;;;-61
2021/02/04 07:11:56;;;;;;;4.01;1.69;;;;;;;17.04;47.62;100248.86;;;;-61
2021/02/04 07:14:57;;;;;;;4.43;1.67;;;;;;;16.86;47.62;100254.11;;;;-54
2021/02/04 07:17:56;;;;;;;4.13;1.91;;;;;;;16.79;47.58;100260.06;;;;-55
2021/02/04 07:20:56;;;;;;;4.80;1.89;;;;;;;16.67;47.66;100263.93;;;;-54
2021/02/04 07:23:57;;;;;;;5.74;2.04;;;;;;;16.60;47.65;100267.88;;;;-53
2021/02/04 07:26:56;;;;;;;5.34;1.95;;;;;;;16.72;48.05;100272.41;;;;-60
2021/02/04 07:29:57;;;;;;;4.85;1.83;;;;;;;16.83;48.50;100273.02;;;;-59
2021/02/04 07:32:57;;;;;;;4.77;1.77;;;;;;;16.93;48.51;100272.56;;;;-53
2021/02/04 07:35:57;;;;;;;4.61;1.79;;;;;;;17.02;48.38;100274.41;;;;-60
2021/02/04 07:38:57;;;;;;;2.85;1.61;;;;;;;17.11;48.48;100282.38;;;;-61
2021/02/04 07:41:57;;;;;;;3.59;1.60;;;;;;;17.19;48.44;100283.37;;;;-61
2021/02/04 07:44:57;;;;;;;2.44;1.51;;;;;;;17.26;48.42;100285.63;;;;-61
2021/02/04 07:47:57;;;;;;;3.01;1.49;;;;;;;17.34;48.45;100291.16;;;;-61
2021/02/04 07:50:56;;;;;;;4.12;1.81;;;;;;;17.41;48.44;100296.91;;;;-60
2021/02/04 07:53:57;;;;;;;2.76;1.60;;;;;;;17.48;48.55;100306.33;;;;-53
2021/02/04 07:56:57;;;;;;;2.55;1.50;;;;;;;17.54;48.69;100305.02;;;;-61
2021/02/04 07:59:57;;;;;;;2.37;1.46;;;;;;;17.60;48.72;100305.75;;;;-61
2021/02/04 08:02:57;;;;;;;2.93;1.55;;;;;;;17.65;48.89;100306.36;;;;-60
2021/02/04 08:05:56;;;;;;;2.35;1.43;;;;;;;17.70;48.97;100308.70;;;;-53
2021/02/04 08:08:56;;;;;;;3.22;1.57;;;;;;;17.76;48.99;100316.44;;;;-54
2021/02/04 08:11:57;;;;;;;2.53;1.53;;;;;;;17.80;49.09;100318.92;;;;-61
2021/02/04 08:14:56;;;;;;;2.72;1.49;;;;;;;17.83;49.00;100324.59;;;;-60
2021/02/04 08:17:57;;;;;;;2.85;1.53;;;;;;;17.86;49.08;100325.34;;;;-61
2021/02/04 08:20:57;;;;;;;2.47;1.54;;;;;;;17.90;49.10;100332.84;;;;-61
2021/02/04 08:23:56;;;;;;;2.60;1.48;;;;;;;17.92;49.07;100335.78;;;;-54
2021/02/04 08:26:57;;;;;;;2.25;1.40;;;;;;;17.94;49.15;100334.27;;;;-61
2021/02/04 08:29:56;;;;;;;2.66;1.41;;;;;;;17.96;49.30;100337.86;;;;-60
2021/02/04 08:32:58;;;;;;;2.73;1.42;;;;;;;17.98;49.28;100341.20;;;;-60
2021/02/04 08:35:57;;;;;;;1.77;1.37;;;;;;;18.01;49.31;100338.70;;;;-53
2021/02/04 08:38:56;;;;;;;2.71;1.41;;;;;;;18.02;49.32;100342.63;;;;-53
2021/02/04 08:41:56;;;;;;;2.70;1.50;;;;;;;18.03;49.26;100336.14;;;;-54
2021/02/04 08:44:57;;;;;;;2.11;1.47;;;;;;;18.04;49.35;100340.22;;;;-54
2021/02/04 08:47:56;;;;;;;2.30;1.45;;;;;;;18.04;49.29;100343.05;;;;-54
2021/02/04 08:50:57;;;;;;;2.55;1.39;;;;;;;18.05;49.24;100349.73;;;;-54
2021/02/04 08:53:56;;;;;;;1.84;1.33;;;;;;;18.06;49.29;100347.53;;;;-54
2021/02/04 08:56:56;;;;;;;1.61;1.31;;;;;;;18.06;49.25;100353.62;;;;-54
2021/02/04 08:59:57;;;;;;;1.88;1.28;;;;;;;18.06;49.25;100358.31;;;;-54
2021/02/04 09:02:56;;;;;;;1.87;1.30;;;;;;;18.06;49.24;100354.34;;;;-54
2021/02/04 09:05:57;;;;;;;6.50;1.43;;;;;;;18.08;49.46;100353.15;;;;-51
2021/02/04 09:08:56;;;;;;;4.43;1.33;;;;;;;18.10;50.33;100354.06;;;;-56
2021/02/04 09:11:56;;;;;;;5.83;1.44;;;;;;;18.13;50.59;100358.87;;;;-51
2021/02/04 09:14:57;;;;;;;1.93;1.34;;;;;;;18.16;50.52;100365.16;;;;-51
2021/02/04 09:17:56;;;;;;;1.83;1.35;;;;;;;18.20;50.77;100368.44;;;;-48
2021/02/04 09:20:57;;;;;;;1.95;1.37;;;;;;;18.23;50.57;100372.27;;;;-51
2021/02/04 09:23:57;;;;;;;3.11;1.20;;;;;;;18.28;50.82;100375.50;;;;-49
2021/02/04 09:26:56;;;;;;;1.68;1.17;;;;;;;18.34;50.65;100379.83;;;;-52
2021/02/04 09:29:56;;;;;;;3.70;1.30;;;;;;;18.37;49.75;100379.56;;;;-52
2021/02/04 09:32:56;;;;;;;3.62;1.29;;;;;;;18.38;49.75;100386.28;;;;-54
2021/02/04 09:35:56;;;;;;;4.99;1.26;;;;;;;18.44;50.33;100394.54;;;;-53
2021/02/04 09:38:57;;;;;;;5.66;1.23;;;;;;;18.53;50.47;100400.45;;;;-59
2021/02/04 09:41:56;;;;;;;2.30;1.40;;;;;;;18.55;50.42;100401.88;;;;-61
2021/02/04 09:44:57;;;;;;;2.49;1.39;;;;;;;18.60;50.73;100404.11;;;;-58
2021/02/04 09:47:57;;;;;;;3.59;1.43;;;;;;;18.62;50.87;100402.02;;;;-61
2021/02/04 09:50:56;;;;;;;3.39;1.43;;;;;;;18.63;50.35;100399.09;;;;-51
2021/02/04 09:53:56;;;;;;;3.73;1.29;;;;;;;18.67;50.40;100396.36;;;;-51
2021/02/04 09:56:56;;;;;;;4.76;1.27;;;;;;;18.72;50.36;100397.97;;;;-57
2021/02/04 09:59:56;;;;;;;2.44;1.31;;;;;;;18.76;50.41;100401.66;;;;-52
2021/02/04 10:02:57;;;;;;;3.16;1.19;;;;;;;18.82;50.33;100405.77;;;;-51
2021/02/04 10:05:56;;;;;;;3.75;1.35;;;;;;;18.86;50.33;100407.35;;;;-51
2021/02/04 10:08:56;;;;;;;1.47;1.20;;;;;;;18.91;50.20;100414.31;;;;-57
2021/02/04 10:11:57;;;;;;;2.39;1.43;;;;;;;18.95;50.27;100412.88;;;;-56
2021/02/04 10:14:56;;;;;;;2.65;1.23;;;;;;;18.98;49.95;100411.83;;;;-59
2021/02/04 10:17:56;;;;;;;2.15;1.29;;;;;;;19.02;50.06;100418.20;;;;-52
2021/02/04 10:20:57;;;;;;;2.07;1.24;;;;;;;19.06;50.32;100422.05;;;;-51
2021/02/04 10:23:56;;;;;;;1.63;1.30;;;;;;;19.09;50.04;100422.88;;;;-56
2021/02/04 10:26:57;;;;;;;1.82;1.29;;;;;;;19.14;50.33;100422.77;;;;-49
2021/02/04 10:29:56;;;;;;;4.20;1.25;;;;;;;19.17;50.20;100422.88;;;;-50
2021/02/04 10:32:57;;;;;;;2.58;1.14;;;;;;;19.21;50.21;100421.42;;;;-54
2021/02/04 10:36:01;;;;;;;3.37;1.12;;;;;;;19.24;50.13;100422.34;;;;-50
2021/02/04 10:38:56;;;;;;;2.87;1.19;;;;;;;19.27;50.13;100424.39;;;;-52
2021/02/04 10:41:56;;;;;;;2.75;1.25;;;;;;;19.29;49.90;100426.27;;;;-52
2021/02/04 10:44:56;;;;;;;1.67;1.24;;;;;;;19.32;50.07;100424.44;;;;-52
2021/02/04 10:47:56;;;;;;;1.64;1.16;;;;;;;19.36;49.95;100422.16;;;;-49
2021/02/04 10:50:57;;;;;;;1.44;1.19;;;;;;;19.38;50.01;100422.36;;;;-58
2021/02/04 10:53:56;;;;;;;2.95;1.29;;;;;;;19.42;49.88;100414.48;;;;-53
2021/02/04 10:56:56;;;;;;;1.23;1.10;;;;;;;19.45;49.67;100413.29;;;;-49
2021/02/04 10:59:56;;;;;;;2.94;1.20;;;;;;;19.47;49.45;100410.87;;;;-49
2021/02/04 11:02:57;;;;;;;4.07;1.37;;;;;;;19.47;49.22;100413.30;;;;-48
2021/02/04 11:05:57;;;;;;;2.09;1.23;;;;;;;19.45;49.19;100410.20;;;;-49
2021/02/04 11:08:56;;;;;;;1.42;1.00;;;;;;;19.45;49.09;100414.34;;;;-49
2021/02/04 11:11:56;;;;;;;1.75;1.13;;;;;;;19.45;49.05;100412.97;;;;-48
2021/02/04 11:14:57;;;;;;;1.58;1.10;;;;;;;19.46;49.00;100416.21;;;;-49
2021/02/04 11:17:56;;;;;;;1.20;1.10;;;;;;;19.46;48.99;100415.31;;;;-49
2021/02/04 11:20:56;;;;;;;1.74;1.25;;;;;;;19.46;48.89;100408.65;;;;-49
2021/02/04 11:23:57;;;;;;;1.54;1.11;;;;;;;19.45;48.86;100408.09;;;;-49
2021/02/04 11:26:56;;;;;;;1.57;1.10;;;;;;;19.45;48.86;100403.70;;;;-51
2021/02/04 11:29:56;;;;;;;1.52;1.10;;;;;;;19.45;48.81;100397.03;;;;-50
2021/02/04 11:32:57;;;;;;;2.31;1.13;;;;;;;19.46;48.74;100395.81;;;;-51
2021/02/04 11:35:56;;;;;;;1.33;1.20;;;;;;;19.46;48.73;100387.12;;;;-49
2021/02/04 11:38:57;;;;;;;2.48;1.23;;;;;;;19.46;48.65;100383.05;;;;-49
2021/02/04 11:41:56;;;;;;;2.06;1.00;;;;;;;19.46;48.68;100385.16;;;;-52
2021/02/04 11:44:56;;;;;;;1.38;1.21;;;;;;;19.46;48.62;100388.84;;;;-49
2021/02/04 11:47:57;;;;;;;1.19;0.99;;;;;;;19.47;48.68;100387.38;;;;-51
2021/02/04 11:50:56;;;;;;;1.89;1.13;;;;;;;19.48;48.63;100389.23;;;;-51
2021/02/04 11:53:56;;;;;;;1.23;1.10;;;;;;;19.49;48.55;100378.61;;;;-51
2021/02/04 11:56:56;;;;;;;1.52;1.17;;;;;;;19.48;48.49;100367.45;;;;-51
2021/02/04 11:59:57;;;;;;;1.48;1.10;;;;;;;19.49;48.53;100357.88;;;;-48
2021/02/04 12:02:57;;;;;;;1.28;1.18;;;;;;;19.51;48.52;100351.72;;;;-49
2021/02/04 12:05:56;;;;;;;1.11;0.91;;;;;;;19.53;48.51;100349.37;;;;-51
2021/02/04 12:08:56;;;;;;;2.70;1.13;;;;;;;19.56;48.93;100343.19;;;;-54
2021/02/04 12:11:56;;;;;;;1.50;1.09;;;;;;;19.59;49.36;100336.63;;;;-54
2021/02/04 12:14:56;;;;;;;1.47;0.96;;;;;;;19.66;49.40;100328.85;;;;-47
2021/02/04 12:17:57;;;;;;;1.93;1.18;;;;;;;19.66;49.46;100327.70;;;;-53
2021/02/04 12:20:56;;;;;;;1.97;1.09;;;;;;;19.71;49.45;100321.24;;;;-58
2021/02/04 12:23:56;;;;;;;2.24;1.11;;;;;;;19.73;49.56;100325.80;;;;-49
2021/02/04 12:26:57;;;;;;;1.47;1.15;;;;;;;19.75;49.47;100328.66;;;;-51
2021/02/04 12:29:57;;;;;;;1.36;1.18;;;;;;;19.77;49.49;100318.33;;;;-53
2021/02/04 12:32:56;;;;;;;1.01;1.01;;;;;;;19.79;49.44;100315.82;;;;-54
2021/02/04 12:35:56;;;;;;;1.87;1.09;;;;;;;19.81;49.28;100315.02;;;;-50
2021/02/04 12:38:56;;;;;;;1.43;1.05;;;;;;;19.84;49.45;100309.27;;;;-48
2021/02/04 12:41:57;;;;;;;2.07;1.25;;;;;;;19.84;49.42;100310.48;;;;-47
2021/02/04 12:44:56;;;;;;;1.83;1.19;;;;;;;19.86;48.95;100304.52;;;;-56
2021/02/04 12:47:56;;;;;;;1.84;1.20;;;;;;;19.84;48.76;100296.25;;;;-47
2021/02/04 12:50:58;;;;;;;1.60;1.13;;;;;;;19.82;48.66;100293.40;;;;-51
2021/02/04 12:53:56;;;;;;;2.46;1.23;;;;;;;19.84;48.87;100290.72;;;;-54
2021/02/04 12:56:56;;;;;;;5.90;1.26;;;;;;;19.86;49.16;100290.08;;;;-54
2021/02/04 12:59:56;;;;;;;5.27;1.35;;;;;;;19.88;49.19;100281.11;;;;-48
2021/02/04 13:02:56;;;;;;;3.11;1.27;;;;;;;19.88;49.06;100275.28;;;;-52
2021/02/04 13:05:57;;;;;;;4.07;1.10;;;;;;;19.86;48.75;100273.16;;;;-55
2021/02/04 13:08:56;;;;;;;2.01;1.27;;;;;;;19.85;48.65;100271.36;;;;-54
2021/02/04 13:11:57;;;;;;;2.73;1.22;;;;;;;19.84;48.80;100277.63;;;;-54
2021/02/04 13:14:56;;;;;;;2.61;1.06;;;;;;;19.85;49.10;100273.15;;;;-58
2021/02/04 13:17:56;;;;;;;2.16;1.19;;;;;;;19.86;48.78;100266.41;;;;-57
2021/02/04 13:20:57;;;;;;;3.02;1.37;;;;;;;19.87;48.93;100264.05;;;;-54
2021/02/04 13:23:56;;;;;;;4.73;1.34;;;;;;;19.87;48.69;100263.80;;;;-53
2021/02/04 13:26:56;;;;;;;1.87;1.24;;;;;;;19.87;48.48;100265.51;;;;-53
2021/02/04 13:29:58;;;;;;;2.01;1.07;;;;;;;19.87;48.48;100267.46;;;;-58
2021/02/04 13:32:57;;;;;;;2.18;1.05;;;;;;;19.88;48.40;100268.37;;;;-58
2021/02/04 13:35:56;;;;;;;3.57;1.30;;;;;;;19.88;48.33;100264.69;;;;-53
2021/02/04 13:38:57;;;;;;;1.97;1.29;;;;;;;19.88;48.31;100265.17;;;;-53
2021/02/04 13:41:56;;;;;;;1.76;1.17;;;;;;;19.88;48.28;100257.04;;;;-59
2021/02/04 13:44:56;;;;;;;3.51;1.32;;;;;;;19.88;48.37;100255.84;;;;-61
2021/02/04 13:47:56;;;;;;;3.18;1.31;;;;;;;19.87;48.12;100256.47;;;;-59
2021/02/04 13:50:56;;;;;;;4.01;1.30;;;;;;;19.86;48.33;100260.23;;;;-53
2021/02/04 13:53:57;;;;;;;5.43;1.26;;;;;;;19.89;48.54;100261.45;;;;-57
2021/02/04 13:56:56;;;;;;;2.71;1.30;;;;;;;19.89;48.85;100262.83;;;;-51
2021/02/04 13:59:56;;;;;;;2.42;1.17;;;;;;;19.90;48.94;100268.13;;;;-51
2021/02/04 14:02:56;;;;;;;3.08;1.09;;;;;;;19.92;49.01;100266.48;;;;-50
2021/02/04 14:05:57;;;;;;;5.07;1.20;;;;;;;19.93;48.81;100265.52;;;;-57
2021/02/04 14:08:56;;;;;;;3.68;1.20;;;;;;;19.95;48.60;100264.05;;;;-51
2021/02/04 14:11:56;;;;;;;4.09;1.19;;;;;;;19.96;48.58;100262.60;;;;-51
2021/02/04 14:14:57;;;;;;;3.86;1.30;;;;;;;19.98;48.65;100263.80;;;;-52
2021/02/04 14:17:56;;;;;;;1.47;1.15;;;;;;;20.00;48.77;100263.39;;;;-48
2021/02/04 14:20:57;;;;;;;1.89;1.11;;;;;;;20.02;48.85;100264.46;;;;-51
2021/02/04 14:23:56;;;;;;;1.76;1.29;;;;;;;20.03;48.90;100264.08;;;;-57
2021/02/04 14:26:56;;;;;;;2.31;1.26;;;;;;;20.04;48.96;100262.19;;;;-52
2021/02/04 14:29:56;;;;;;;2.21;1.14;;;;;;;20.07;48.99;100267.73;;;;-52
2021/02/04 14:32:56;;;;;;;3.32;1.30;;;;;;;20.08;48.56;100263.48;;;;-57
2021/02/04 14:35:56;;;;;;;2.09;1.17;;;;;;;20.06;48.42;100261.70;;;;-56
2021/02/04 14:38:56;;;;;;;1.85;1.20;;;;;;;20.04;48.39;100262.34;;;;-57
2021/02/04 14:41:56;;;;;;;4.01;1.12;;;;;;;20.03;48.35;100261.70;;;;-52
2021/02/04 14:44:56;;;;;;;2.40;1.27;;;;;;;20.02;48.31;100259.98;;;;-52
2021/02/04 14:47:56;;;;;;;1.31;1.16;;;;;;;20.01;48.32;100256.18;;;;-51
2021/02/04 14:50:56;;;;;;;1.59;1.08;;;;;;;20.00;48.27;100256.48;;;;-56
2021/02/04 14:53:57;;;;;;;5.35;1.25;;;;;;;20.01;48.36;100267.48;;;;-59
2021/02/04 14:56:57;;;;;;;3.01;1.29;;;;;;;19.99;48.47;100267.72;;;;-54
2021/02/04 14:59:56;;;;;;;3.61;1.27;;;;;;;19.99;48.50;100272.03;;;;-54
2021/02/04 15:02:56;;;;;;;1.58;1.27;;;;;;;20.00;48.33;100270.88;;;;-56
2021/02/04 15:05:56;;;;;;;3.97;1.30;;;;;;;20.02;48.15;100270.97;;;;-56
2021/02/04 15:08:56;;;;;;;3.70;1.25;;;;;;;20.04;48.42;100268.13;;;;-56
2021/02/04 15:11:56;;;;;;;2.61;1.22;;;;;;;20.05;48.58;100261.80;;;;-51
2021/02/04 15:14:56;;;;;;;1.75;1.23;;;;;;;20.09;48.48;100258.86;;;;-59
2021/02/04 15:17:56;;;;;;;3.39;1.25;;;;;;;20.08;48.27;100259.42;;;;-56
2021/02/04 15:20:56;;;;;;;2.38;1.20;;;;;;;20.09;48.24;100261.31;;;;-54
2021/02/04 15:23:56;;;;;;;1.59;1.31;;;;;;;20.09;48.18;100266.84;;;;-54
2021/02/04 15:26:57;;;;;;;2.23;1.16;;;;;;;20.09;48.20;100259.84;;;;-51
2021/02/04 15:29:57;;;;;;;2.05;1.30;;;;;;;20.09;48.14;100257.64;;;;-54
2021/02/04 15:32:56;;;;;;;1.38;1.11;;;;;;;20.11;48.13;100255.45;;;;-53
2021/02/04 15:35:56;;;;;;;1.85;1.19;;;;;;;20.10;48.10;100250.72;;;;-55
2021/02/04 15:38:56;;;;;;;1.71;1.16;;;;;;;20.11;48.10;100255.13;;;;-56
2021/02/04 15:41:56;;;;;;;2.09;1.19;;;;;;;20.10;48.09;100250.87;;;;-56
2021/02/04 15:44:56;;;;;;;1.52;1.22;;;;;;;20.10;48.11;100250.87;;;;-59
2021/02/04 15:47:56;;;;;;;2.42;1.25;;;;;;;20.09;48.05;100247.31;;;;-54
2021/02/04 15:50:56;;;;;;;1.67;1.24;;;;;;;20.11;48.08;100244.13;;;;-58
2021/02/04 15:53:56;;;;;;;1.57;1.17;;;;;;;20.11;48.07;100241.38;;;;-56
2021/02/04 15:56:56;;;;;;;1.11;1.00;;;;;;;20.12;48.02;100237.14;;;;-56
2021/02/04 15:59:56;;;;;;;1.47;1.08;;;;;;;20.13;48.04;100237.29;;;;-55
2021/02/04 16:02:56;;;;;;;0.97;0.95;;;;;;;20.13;48.06;100234.63;;;;-55
2021/02/04 16:05:56;;;;;;;2.66;1.25;;;;;;;20.14;48.22;100237.30;;;;-53
2021/02/04 16:08:56;;;;;;;1.40;1.23;;;;;;;20.18;48.51;100242.75;;;;-49
2021/02/04 16:11:56;;;;;;;1.25;1.15;;;;;;;20.19;48.68;100240.41;;;;-48
2021/02/04 16:14:57;;;;;;;2.06;1.21;;;;;;;20.22;48.82;100240.80;;;;-48
2021/02/04 16:17:56;;;;;;;2.11;1.31;;;;;;;20.22;48.70;100239.99;;;;-61
2021/02/04 16:20:58;;;;;;;2.25;1.25;;;;;;;20.24;48.88;100241.45;;;;-47
2021/02/04 16:23:56;;;;;;;3.75;1.28;;;;;;;20.24;48.68;100239.73;;;;-58
2021/02/04 16:26:56;;;;;;;4.99;1.45;;;;;;;20.25;48.51;100242.09;;;;-47
2021/02/04 16:29:56;;;;;;;4.40;1.30;;;;;;;20.29;48.93;100230.45;;;;-51
2021/02/04 16:32:56;;;;;;;3.63;1.20;;;;;;;20.30;49.19;100227.13;;;;-49
2021/02/04 16:35:56;;;;;;;7.13;1.27;;;;;;;20.31;49.29;100230.86;;;;-53
2021/02/04 16:38:56;;;;;;;3.02;1.33;;;;;;;20.33;49.62;100228.83;;;;-58
2021/02/04 16:41:56;;;;;;;4.35;1.36;;;;;;;20.33;49.84;100232.80;;;;-57
2021/02/04 16:44:56;;;;;;;2.35;1.31;;;;;;;20.35;50.09;100225.73;;;;-55
2021/02/04 16:47:56;;;;;;;1.29;1.19;;;;;;;20.35;50.25;100221.33;;;;-52